sensor_id;sensor_type;location;lat;lon;timestamp;pressure;altitude;pressure_sealevel;temperature;humidity
57600;BME280;43426;43.594;24.334;2023-10-09T00:01:04;101785.88;;;13.50;53.85
57600;BME280;43426;43.594;24.334;2023-10-09T00:03:35;101795.91;;;13.57;53.69
57600;BME280;43426;43.594;24.334;2023-10-09T00:06:02;101781.09;;;13.35;53.04
57600;BME280;43426;43.594;24.334;2023-10-09T00:08:29;101794.84;;;13.42;52.49
57600;BME280;43426;43.594;24.334;2023-10-09T00:10:59;101785.44;;;13.28;52.32
57600;BME280;43426;43.594;24.334;2023-10-09T00:13:39;101794.78;;;13.34;52.63
57600;BME280;43426;43.594;24.334;2023-10-09T00:16:18;101786.78;;;13.24;52.11
57600;BME280;43426;43.594;24.334;2023-10-09T00:19:05;101793.19;;;13.15;50.82
57600;BME280;43426;43.594;24.334;2023-10-09T00:21:55;101809.66;;;13.21;51.15
57600;BME280;43426;43.594;24.334;2023-10-09T00:24:21;101800.66;;;13.21;51.01
57600;BME280;43426;43.594;24.334;2023-10-09T00:26:50;101800.25;;;13.07;50.13
57600;BME280;43426;43.594;24.334;2023-10-09T00:29:17;101814.47;;;13.09;50.74
57600;BME280;43426;43.594;24.334;2023-10-09T00:31:55;101827.75;;;13.21;50.16
57600;BME280;43426;43.594;24.334;2023-10-09T00:34:38;101813.44;;;13.02;48.49
57600;BME280;43426;43.594;24.334;2023-10-09T00:37:10;101840.41;;;13.12;48.22
57600;BME280;43426;43.594;24.334;2023-10-09T00:39:41;101851.91;;;13.06;48.47
57600;BME280;43426;43.594;24.334;2023-10-09T00:42:12;101841.53;;;13.01;49.00
57600;BME280;43426;43.594;24.334;2023-10-09T00:44:40;101847.00;;;13.09;48.71
57600;BME280;43426;43.594;24.334;2023-10-09T00:47:12;101830.41;;;13.04;48.74
57600;BME280;43426;43.594;24.334;2023-10-09T00:52:52;101858.94;;;13.25;46.87
57600;BME280;43426;43.594;24.334;2023-10-09T00:55:20;101852.31;;;13.19;46.95
57600;BME280;43426;43.594;24.334;2023-10-09T00:58:14;101843.00;;;13.22;46.58
57600;BME280;43426;43.594;24.334;2023-10-09T01:00:43;101846.25;;;13.25;46.18
57600;BME280;43426;43.594;24.334;2023-10-09T01:03:09;101826.66;;;13.05;45.69
57600;BME280;43426;43.594;24.334;2023-10-09T01:05:56;101854.84;;;13.13;45.69
57600;BME280;43426;43.594;24.334;2023-10-09T01:08:25;101865.34;;;13.16;45.30
57600;BME280;43426;43.594;24.334;2023-10-09T01:11:16;101875.81;;;13.10;46.07
57600;BME280;43426;43.594;24.334;2023-10-09T01:13:49;101875.44;;;13.05;45.76
57600;BME280;43426;43.594;24.334;2023-10-09T01:16:22;101855.06;;;13.01;45.71
57600;BME280;43426;43.594;24.334;2023-10-09T01:18:51;101862.53;;;12.99;45.15
57600;BME280;43426;43.594;24.334;2023-10-09T01:21:17;101888.53;;;13.10;45.28
57600;BME280;43426;43.594;24.334;2023-10-09T01:23:46;101871.03;;;13.04;44.83
57600;BME280;43426;43.594;24.334;2023-10-09T01:26:30;101892.06;;;13.10;44.69
57600;BME280;43426;43.594;24.334;2023-10-09T01:28:58;101862.63;;;12.89;45.15
57600;BME280;43426;43.594;24.334;2023-10-09T01:31:26;101867.91;;;12.91;45.12
57600;BME280;43426;43.594;24.334;2023-10-09T01:33:52;101873.63;;;12.88;44.80
57600;BME280;43426;43.594;24.334;2023-10-09T01:36:27;101911.75;;;13.13;44.68
57600;BME280;43426;43.594;24.334;2023-10-09T01:39:00;101910.13;;;13.02;44.76
57600;BME280;43426;43.594;24.334;2023-10-09T01:41:27;101892.88;;;12.85;44.66
57600;BME280;43426;43.594;24.334;2023-10-09T01:43:52;101927.06;;;13.04;45.06
57600;BME280;43426;43.594;24.334;2023-10-09T01:46:25;101927.41;;;13.01;44.59
57600;BME280;43426;43.594;24.334;2023-10-09T01:48:51;101931.66;;;13.03;45.06
57600;BME280;43426;43.594;24.334;2023-10-09T01:51:19;101937.22;;;13.02;44.92
57600;BME280;43426;43.594;24.334;2023-10-09T01:53:45;101913.16;;;12.81;45.06
57600;BME280;43426;43.594;24.334;2023-10-09T01:56:19;101938.91;;;13.03;44.76
57600;BME280;43426;43.594;24.334;2023-10-09T01:58:45;101943.88;;;13.07;44.86
57600;BME280;43426;43.594;24.334;2023-10-09T02:01:12;101938.00;;;12.94;45.05
57600;BME280;43426;43.594;24.334;2023-10-09T02:03:39;101938.72;;;12.96;44.81
57600;BME280;43426;43.594;24.334;2023-10-09T02:06:07;101934.56;;;12.84;44.93
57600;BME280;43426;43.594;24.334;2023-10-09T02:08:51;101955.13;;;12.94;45.18
57600;BME280;43426;43.594;24.334;2023-10-09T02:11:17;101934.28;;;12.95;45.04
57600;BME280;43426;43.594;24.334;2023-10-09T02:14:00;101950.88;;;12.92;44.97
57600;BME280;43426;43.594;24.334;2023-10-09T02:16:26;101929.41;;;12.81;45.19
57600;BME280;43426;43.594;24.334;2023-10-09T02:18:55;101948.44;;;12.89;45.27
57600;BME280;43426;43.594;24.334;2023-10-09T02:21:24;101958.59;;;12.87;46.05
57600;BME280;43426;43.594;24.334;2023-10-09T02:24:02;101945.75;;;12.71;45.47
57600;BME280;43426;43.594;24.334;2023-10-09T02:26:31;101973.88;;;12.88;45.78
57600;BME280;43426;43.594;24.334;2023-10-09T02:29:05;101983.81;;;12.87;45.63
57600;BME280;43426;43.594;24.334;2023-10-09T02:31:44;101959.31;;;12.71;45.61
57600;BME280;43426;43.594;24.334;2023-10-09T02:34:17;101958.78;;;12.67;45.94
57600;BME280;43426;43.594;24.334;2023-10-09T02:36:46;101987.78;;;12.93;46.03
57600;BME280;43426;43.594;24.334;2023-10-09T02:39:24;101988.81;;;12.92;45.78
57600;BME280;43426;43.594;24.334;2023-10-09T02:41:54;101978.03;;;13.00;46.04
57600;BME280;43426;43.594;24.334;2023-10-09T02:44:26;101973.38;;;12.92;45.61
57600;BME280;43426;43.594;24.334;2023-10-09T02:46:51;101974.94;;;12.95;45.54
57600;BME280;43426;43.594;24.334;2023-10-09T02:49:23;101966.75;;;12.87;45.88
57600;BME280;43426;43.594;24.334;2023-10-09T02:51:48;101947.06;;;12.85;45.92
57600;BME280;43426;43.594;24.334;2023-10-09T02:54:18;101940.13;;;12.82;45.89
57600;BME280;43426;43.594;24.334;2023-10-09T02:56:49;101973.53;;;12.91;46.02
57600;BME280;43426;43.594;24.334;2023-10-09T02:59:34;101971.38;;;12.76;46.31
57600;BME280;43426;43.594;24.334;2023-10-09T03:02:00;101959.94;;;12.65;46.66
57600;BME280;43426;43.594;24.334;2023-10-09T03:04:26;101971.53;;;12.75;46.56
57600;BME280;43426;43.594;24.334;2023-10-09T03:06:59;101972.16;;;12.87;46.31
57600;BME280;43426;43.594;24.334;2023-10-09T03:09:25;101974.88;;;12.87;46.57
57600;BME280;43426;43.594;24.334;2023-10-09T03:12:01;101962.88;;;12.71;46.65
57600;BME280;43426;43.594;24.334;2023-10-09T03:14:28;101976.72;;;12.86;46.34
57600;BME280;43426;43.594;24.334;2023-10-09T03:16:54;101955.06;;;12.68;45.92
57600;BME280;43426;43.594;24.334;2023-10-09T03:19:22;101951.50;;;12.68;46.43
57600;BME280;43426;43.594;24.334;2023-10-09T03:21:49;101963.88;;;12.70;47.01
57600;BME280;43426;43.594;24.334;2023-10-09T03:24:14;101980.75;;;12.64;46.96
57600;BME280;43426;43.594;24.334;2023-10-09T03:26:41;101987.00;;;12.65;47.58
57600;BME280;43426;43.594;24.334;2023-10-09T03:29:06;101990.97;;;12.70;46.88
57600;BME280;43426;43.594;24.334;2023-10-09T03:31:36;101967.66;;;12.41;47.20
57600;BME280;43426;43.594;24.334;2023-10-09T03:34:02;101973.69;;;12.35;47.35
57600;BME280;43426;43.594;24.334;2023-10-09T03:36:29;101998.06;;;12.53;47.28
57600;BME280;43426;43.594;24.334;2023-10-09T03:38:56;102010.13;;;12.41;47.30
57600;BME280;43426;43.594;24.334;2023-10-09T03:41:26;102000.75;;;12.35;47.52
57600;BME280;43426;43.594;24.334;2023-10-09T03:43:54;101997.25;;;12.43;47.75
57600;BME280;43426;43.594;24.334;2023-10-09T03:46:20;102001.44;;;12.37;47.74
57600;BME280;43426;43.594;24.334;2023-10-09T03:48:48;101974.59;;;12.26;48.28
57600;BME280;43426;43.594;24.334;2023-10-09T03:51:14;102003.34;;;12.55;47.85
57600;BME280;43426;43.594;24.334;2023-10-09T03:53:49;101977.38;;;12.34;47.65
57600;BME280;43426;43.594;24.334;2023-10-09T03:56:16;101984.25;;;12.29;47.92
57600;BME280;43426;43.594;24.334;2023-10-09T03:58:46;102001.75;;;12.34;47.41
57600;BME280;43426;43.594;24.334;2023-10-09T04:01:16;101978.75;;;12.20;47.46
57600;BME280;43426;43.594;24.334;2023-10-09T04:04:08;102007.06;;;12.26;48.55
57600;BME280;43426;43.594;24.334;2023-10-09T04:06:36;102011.91;;;12.22;48.90
57600;BME280;43426;43.594;24.334;2023-10-09T04:09:10;102003.47;;;12.07;49.19
57600;BME280;43426;43.594;24.334;2023-10-09T04:11:51;102013.03;;;12.30;48.40
57600;BME280;43426;43.594;24.334;2023-10-09T04:14:44;101997.41;;;11.86;48.80
57600;BME280;43426;43.594;24.334;2023-10-09T04:17:20;102029.34;;;12.10;48.99
57600;BME280;43426;43.594;24.334;2023-10-09T04:19:58;102027.00;;;11.97;48.91
57600;BME280;43426;43.594;24.334;2023-10-09T04:22:43;102041.63;;;12.04;49.28
57600;BME280;43426;43.594;24.334;2023-10-09T04:25:25;102025.00;;;11.89;49.03
57600;BME280;43426;43.594;24.334;2023-10-09T04:27:56;102046.06;;;11.96;49.26
57600;BME280;43426;43.594;24.334;2023-10-09T04:30:41;102030.34;;;11.71;49.38
57600;BME280;43426;43.594;24.334;2023-10-09T04:33:14;102035.31;;;11.66;49.86
57600;BME280;43426;43.594;24.334;2023-10-09T04:36:04;102056.28;;;11.92;49.66
57600;BME280;43426;43.594;24.334;2023-10-09T04:38:52;102039.97;;;11.74;48.83
57600;BME280;43426;43.594;24.334;2023-10-09T04:41:39;102067.28;;;11.81;49.09
57600;BME280;43426;43.594;24.334;2023-10-09T04:44:08;102068.31;;;11.80;49.61
57600;BME280;43426;43.594;24.334;2023-10-09T04:46:54;102019.44;;;11.53;49.90
57600;BME280;43426;43.594;24.334;2023-10-09T04:49:37;102063.94;;;11.69;50.30
57600;BME280;43426;43.594;24.334;2023-10-09T04:52:11;102078.72;;;11.74;50.66
57600;BME280;43426;43.594;24.334;2023-10-09T04:54:45;102054.81;;;11.60;50.30
57600;BME280;43426;43.594;24.334;2023-10-09T04:57:29;102062.22;;;11.58;50.12
57600;BME280;43426;43.594;24.334;2023-10-09T05:00:06;102077.44;;;11.69;50.13
57600;BME280;43426;43.594;24.334;2023-10-09T05:02:32;102050.56;;;11.67;49.50
57600;BME280;43426;43.594;24.334;2023-10-09T05:05:02;102073.13;;;11.86;50.25
57600;BME280;43426;43.594;24.334;2023-10-09T05:08:03;102076.09;;;12.02;49.85
57600;BME280;43426;43.594;24.334;2023-10-09T05:13:26;102077.13;;;12.29;49.25
57600;BME280;43426;43.594;24.334;2023-10-09T05:16:04;102084.19;;;12.40;49.07
57600;BME280;43426;43.594;24.334;2023-10-09T05:18:30;102084.16;;;12.50;49.50
57600;BME280;43426;43.594;24.334;2023-10-09T05:21:02;102083.94;;;12.61;48.37
57600;BME280;43426;43.594;24.334;2023-10-09T05:23:47;102097.41;;;12.71;47.61
57600;BME280;43426;43.594;24.334;2023-10-09T05:26:31;102071.03;;;12.55;48.25
57600;BME280;43426;43.594;24.334;2023-10-09T05:29:20;102056.47;;;12.56;48.05
57600;BME280;43426;43.594;24.334;2023-10-09T05:31:59;102081.81;;;12.83;48.18
57600;BME280;43426;43.594;24.334;2023-10-09T05:34:50;102097.84;;;13.12;47.69
57600;BME280;43426;43.594;24.334;2023-10-09T05:37:30;102102.97;;;13.33;47.07
57600;BME280;43426;43.594;24.334;2023-10-09T05:40:03;102094.41;;;13.38;46.53
57600;BME280;43426;43.594;24.334;2023-10-09T05:42:41;102097.53;;;13.69;44.80
57600;BME280;43426;43.594;24.334;2023-10-09T05:45:08;102108.09;;;13.99;44.95
57600;BME280;43426;43.594;24.334;2023-10-09T05:47:52;102111.78;;;14.24;44.08
57600;BME280;43426;43.594;24.334;2023-10-09T05:50:37;102122.28;;;14.53;43.08
57600;BME280;43426;43.594;24.334;2023-10-09T05:53:25;102106.41;;;14.67;42.16
57600;BME280;43426;43.594;24.334;2023-10-09T05:56:22;102109.81;;;14.77;43.36
57600;BME280;43426;43.594;24.334;2023-10-09T05:58:57;102111.72;;;14.85;42.47
57600;BME280;43426;43.594;24.334;2023-10-09T06:01:31;102086.41;;;14.84;42.58
57600;BME280;43426;43.594;24.334;2023-10-09T06:04:06;102119.44;;;15.14;41.67
57600;BME280;43426;43.594;24.334;2023-10-09T06:06:45;102102.63;;;15.27;40.19
57600;BME280;43426;43.594;24.334;2023-10-09T06:09:14;102097.00;;;15.04;40.93
57600;BME280;43426;43.594;24.334;2023-10-09T06:11:44;102111.44;;;15.12;41.27
57600;BME280;43426;43.594;24.334;2023-10-09T06:14:21;102097.88;;;15.21;41.42
57600;BME280;43426;43.594;24.334;2023-10-09T06:16:57;102125.56;;;15.57;40.86
57600;BME280;43426;43.594;24.334;2023-10-09T06:19:23;102124.72;;;15.73;40.29
57600;BME280;43426;43.594;24.334;2023-10-09T06:21:56;102101.44;;;15.87;39.73
57600;BME280;43426;43.594;24.334;2023-10-09T06:24:38;102112.59;;;16.17;38.84
57600;BME280;43426;43.594;24.334;2023-10-09T06:27:19;102102.59;;;16.09;38.54
57600;BME280;43426;43.594;24.334;2023-10-09T06:29:58;102125.69;;;16.30;38.49
57600;BME280;43426;43.594;24.334;2023-10-09T06:32:42;102127.00;;;16.42;37.70
57600;BME280;43426;43.594;24.334;2023-10-09T06:35:23;102113.81;;;16.14;38.09
57600;BME280;43426;43.594;24.334;2023-10-09T06:37:56;102118.19;;;16.24;38.06
57600;BME280;43426;43.594;24.334;2023-10-09T06:40:32;102113.13;;;16.12;38.65
57600;BME280;43426;43.594;24.334;2023-10-09T06:43:16;102110.28;;;15.81;38.24
57600;BME280;43426;43.594;24.334;2023-10-09T06:45:56;102131.38;;;15.87;38.72
57600;BME280;43426;43.594;24.334;2023-10-09T06:48:40;102118.13;;;15.92;38.03
57600;BME280;43426;43.594;24.334;2023-10-09T06:51:10;102124.72;;;16.06;37.93
57600;BME280;43426;43.594;24.334;2023-10-09T06:53:52;102131.44;;;16.35;37.38
57600;BME280;43426;43.594;24.334;2023-10-09T06:56:20;102117.19;;;16.25;37.77
57600;BME280;43426;43.594;24.334;2023-10-09T07:01:25;102142.31;;;16.43;37.18
57600;BME280;43426;43.594;24.334;2023-10-09T07:04:11;102138.56;;;16.44;37.23
57600;BME280;43426;43.594;24.334;2023-10-09T07:06:55;102115.97;;;16.36;37.91
57600;BME280;43426;43.594;24.334;2023-10-09T07:09:22;102133.84;;;16.38;37.22
57600;BME280;43426;43.594;24.334;2023-10-09T07:11:52;102088.91;;;16.34;37.54
57600;BME280;43426;43.594;24.334;2023-10-09T07:14:19;102147.91;;;16.98;36.92
57600;BME280;43426;43.594;24.334;2023-10-09T07:17:10;102146.88;;;17.22;36.27
57600;BME280;43426;43.594;24.334;2023-10-09T07:19:53;102121.91;;;17.10;36.19
57600;BME280;43426;43.594;24.334;2023-10-09T07:22:18;102169.34;;;17.32;36.08
57600;BME280;43426;43.594;24.334;2023-10-09T07:27:30;102154.66;;;17.57;36.37
57600;BME280;43426;43.594;24.334;2023-10-09T07:30:18;102156.81;;;17.84;35.45
57600;BME280;43426;43.594;24.334;2023-10-09T07:33:06;102153.03;;;17.85;35.24
57600;BME280;43426;43.594;24.334;2023-10-09T07:35:42;102133.16;;;18.00;35.87
57600;BME280;43426;43.594;24.334;2023-10-09T07:38:08;102141.06;;;18.25;34.96
57600;BME280;43426;43.594;24.334;2023-10-09T07:40:38;102150.22;;;18.47;34.51
57600;BME280;43426;43.594;24.334;2023-10-09T07:43:39;102128.53;;;18.60;34.20
57600;BME280;43426;43.594;24.334;2023-10-09T07:46:07;102149.25;;;18.84;34.30
57600;BME280;43426;43.594;24.334;2023-10-09T07:48:51;102112.31;;;18.59;34.24
57600;BME280;43426;43.594;24.334;2023-10-09T07:51:18;102139.94;;;18.64;34.37
57600;BME280;43426;43.594;24.334;2023-10-09T07:53:51;102115.75;;;18.31;35.48
57600;BME280;43426;43.594;24.334;2023-10-09T07:56:32;102134.09;;;18.67;34.74
57600;BME280;43426;43.594;24.334;2023-10-09T07:59:05;102117.78;;;18.59;34.38
57600;BME280;43426;43.594;24.334;2023-10-09T08:01:46;102140.03;;;18.55;34.95
57600;BME280;43426;43.594;24.334;2023-10-09T08:04:24;102127.88;;;18.43;34.67
57600;BME280;43426;43.594;24.334;2023-10-09T08:07:13;102099.78;;;18.49;34.77
57600;BME280;43426;43.594;24.334;2023-10-09T08:09:53;102126.91;;;18.66;34.95
57600;BME280;43426;43.594;24.334;2023-10-09T08:12:37;102138.47;;;18.98;34.68
57600;BME280;43426;43.594;24.334;2023-10-09T08:15:16;102105.81;;;19.33;34.35
57600;BME280;43426;43.594;24.334;2023-10-09T08:17:48;102110.22;;;19.55;33.72
57600;BME280;43426;43.594;24.334;2023-10-09T08:20:26;102108.91;;;19.51;33.77
57600;BME280;43426;43.594;24.334;2023-10-09T08:22:55;102105.34;;;19.79;33.08
57600;BME280;43426;43.594;24.334;2023-10-09T08:25:25;102089.69;;;19.95;32.21
57600;BME280;43426;43.594;24.334;2023-10-09T08:28:02;102101.47;;;19.67;32.85
57600;BME280;43426;43.594;24.334;2023-10-09T08:30:40;102087.81;;;19.95;32.48
57600;BME280;43426;43.594;24.334;2023-10-09T08:33:22;102098.38;;;20.40;32.54
57600;BME280;43426;43.594;24.334;2023-10-09T08:35:50;102096.31;;;20.49;32.41
57600;BME280;43426;43.594;24.334;2023-10-09T08:38:16;102106.84;;;20.45;31.86
57600;BME280;43426;43.594;24.334;2023-10-09T08:40:52;102107.56;;;20.61;32.16
57600;BME280;43426;43.594;24.334;2023-10-09T08:43:23;102104.75;;;20.96;32.10
57600;BME280;43426;43.594;24.334;2023-10-09T08:45:51;102075.00;;;21.19;31.83
57600;BME280;43426;43.594;24.334;2023-10-09T08:48:18;102114.78;;;21.64;30.77
57600;BME280;43426;43.594;24.334;2023-10-09T08:50:47;102112.91;;;21.64;30.61
57600;BME280;43426;43.594;24.334;2023-10-09T08:53:13;102086.22;;;21.51;30.91
57600;BME280;43426;43.594;24.334;2023-10-09T08:55:40;102093.19;;;21.81;30.96
57600;BME280;43426;43.594;24.334;2023-10-09T08:58:06;102098.84;;;22.19;30.50
57600;BME280;43426;43.594;24.334;2023-10-09T09:00:41;102093.66;;;22.56;30.60
57600;BME280;43426;43.594;24.334;2023-10-09T09:03:20;102097.94;;;22.91;28.94
57600;BME280;43426;43.594;24.334;2023-10-09T09:05:58;102111.19;;;23.14;29.21
57600;BME280;43426;43.594;24.334;2023-10-09T09:08:27;102102.03;;;23.20;28.30
57600;BME280;43426;43.594;24.334;2023-10-09T09:11:00;102097.66;;;23.06;28.94
57600;BME280;43426;43.594;24.334;2023-10-09T09:13:47;102096.09;;;23.23;27.83
57600;BME280;43426;43.594;24.334;2023-10-09T09:16:19;102088.22;;;23.27;28.30
57600;BME280;43426;43.594;24.334;2023-10-09T09:21:28;102067.59;;;23.61;28.62
57600;BME280;43426;43.594;24.334;2023-10-09T09:23:59;102057.38;;;23.87;28.11
57600;BME280;43426;43.594;24.334;2023-10-09T09:26:36;102083.06;;;24.06;27.20
57600;BME280;43426;43.594;24.334;2023-10-09T09:29:04;102086.47;;;23.83;27.57
57600;BME280;43426;43.594;24.334;2023-10-09T09:31:33;102082.47;;;24.04;27.29
57600;BME280;43426;43.594;24.334;2023-10-09T09:34:07;102058.47;;;24.23;27.01
57600;BME280;43426;43.594;24.334;2023-10-09T09:36:55;102047.31;;;23.74;27.18
57600;BME280;43426;43.594;24.334;2023-10-09T09:39:31;102039.63;;;23.33;28.07
57600;BME280;43426;43.594;24.334;2023-10-09T09:42:00;102035.59;;;23.35;28.16
57600;BME280;43426;43.594;24.334;2023-10-09T09:44:39;102045.81;;;23.53;27.70
57600;BME280;43426;43.594;24.334;2023-10-09T09:47:14;102025.50;;;23.29;27.99
57600;BME280;43426;43.594;24.334;2023-10-09T09:49:50;102000.72;;;22.97;28.61
57600;BME280;43426;43.594;24.334;2023-10-09T09:52:16;102008.69;;;23.37;27.37
57600;BME280;43426;43.594;24.334;2023-10-09T09:54:43;102012.94;;;23.77;28.21
57600;BME280;43426;43.594;24.334;2023-10-09T09:57:09;102023.66;;;24.41;26.86
57600;BME280;43426;43.594;24.334;2023-10-09T09:59:40;102015.16;;;24.42;26.69
57600;BME280;43426;43.594;24.334;2023-10-09T10:02:19;101996.69;;;24.43;26.04
57600;BME280;43426;43.594;24.334;2023-10-09T10:04:46;102005.00;;;24.55;25.87
57600;BME280;43426;43.594;24.334;2023-10-09T10:07:15;101996.72;;;24.73;25.90
57600;BME280;43426;43.594;24.334;2023-10-09T10:09:42;101993.09;;;24.73;25.13
57600;BME280;43426;43.594;24.334;2023-10-09T10:12:11;101985.03;;;24.71;27.27
57600;BME280;43426;43.594;24.334;2023-10-09T10:14:55;101971.91;;;25.09;25.97
57600;BME280;43426;43.594;24.334;2023-10-09T10:17:25;101954.53;;;25.20;25.97
57600;BME280;43426;43.594;24.334;2023-10-09T10:20:05;101966.09;;;25.41;25.69
57600;BME280;43426;43.594;24.334;2023-10-09T10:23:17;101961.59;;;25.04;25.27
57600;BME280;43426;43.594;24.334;2023-10-09T10:25:43;101931.31;;;24.97;24.76
57600;BME280;43426;43.594;24.334;2023-10-09T10:31:04;101933.72;;;25.77;25.64
57600;BME280;43426;43.594;24.334;2023-10-09T10:36:21;101905.88;;;25.95;24.09
57600;BME280;43426;43.594;24.334;2023-10-09T10:38:59;101918.75;;;25.90;23.71
57600;BME280;43426;43.594;24.334;2023-10-09T10:41:53;101910.22;;;26.03;23.99
57600;BME280;43426;43.594;24.334;2023-10-09T10:44:32;101906.97;;;26.23;23.81
57600;BME280;43426;43.594;24.334;2023-10-09T10:47:09;101910.16;;;26.15;24.90
57600;BME280;43426;43.594;24.334;2023-10-09T10:49:53;101910.13;;;26.44;23.76
57600;BME280;43426;43.594;24.334;2023-10-09T10:52:26;101892.09;;;26.58;23.81
57600;BME280;43426;43.594;24.334;2023-10-09T10:55:12;101892.88;;;26.71;23.53
57600;BME280;43426;43.594;24.334;2023-10-09T10:58:15;101865.94;;;26.66;24.35
57600;BME280;43426;43.594;24.334;2023-10-09T11:00:54;101855.47;;;26.85;24.09
57600;BME280;43426;43.594;24.334;2023-10-09T11:03:23;101873.31;;;27.11;22.86
57600;BME280;43426;43.594;24.334;2023-10-09T11:06:09;101866.22;;;27.21;23.47
57600;BME280;43426;43.594;24.334;2023-10-09T11:08:47;101848.31;;;26.89;22.92
57600;BME280;43426;43.594;24.334;2023-10-09T11:11:34;101867.44;;;26.40;23.48
57600;BME280;43426;43.594;24.334;2023-10-09T11:14:13;101843.06;;;25.79;24.00
57600;BME280;43426;43.594;24.334;2023-10-09T11:16:43;101855.97;;;25.61;24.65
57600;BME280;43426;43.594;24.334;2023-10-09T11:19:14;101829.84;;;25.28;24.91
57600;BME280;43426;43.594;24.334;2023-10-09T11:21:54;101838.47;;;25.32;25.78
57600;BME280;43426;43.594;24.334;2023-10-09T11:24:32;101820.63;;;25.23;25.39
57600;BME280;43426;43.594;24.334;2023-10-09T11:27:00;101786.47;;;25.29;25.47
57600;BME280;43426;43.594;24.334;2023-10-09T11:29:33;101797.19;;;25.37;26.00
57600;BME280;43426;43.594;24.334;2023-10-09T11:32:08;101793.00;;;25.63;25.22
57600;BME280;43426;43.594;24.334;2023-10-09T11:34:44;101805.88;;;25.87;25.43
57600;BME280;43426;43.594;24.334;2023-10-09T11:37:21;101797.91;;;25.61;24.17
57600;BME280;43426;43.594;24.334;2023-10-09T11:39:59;101803.81;;;25.65;23.96
57600;BME280;43426;43.594;24.334;2023-10-09T11:42:29;101804.31;;;25.62;24.68
57600;BME280;43426;43.594;24.334;2023-10-09T11:45:23;101796.97;;;25.56;25.40
57600;BME280;43426;43.594;24.334;2023-10-09T11:47:51;101792.88;;;25.18;23.75
57600;BME280;43426;43.594;24.334;2023-10-09T11:50:43;101789.94;;;24.72;24.14
57600;BME280;43426;43.594;24.334;2023-10-09T11:53:11;101768.06;;;24.58;24.39
57600;BME280;43426;43.594;24.334;2023-10-09T11:55:57;101769.34;;;24.20;24.97
57600;BME280;43426;43.594;24.334;2023-10-09T11:58:23;101764.41;;;24.10;26.00
57600;BME280;43426;43.594;24.334;2023-10-09T12:00:56;101752.47;;;24.40;26.28
57600;BME280;43426;43.594;24.334;2023-10-09T12:03:26;101759.28;;;24.97;25.39
57600;BME280;43426;43.594;24.334;2023-10-09T12:06:03;101745.56;;;25.14;23.75
57600;BME280;43426;43.594;24.334;2023-10-09T12:08:38;101733.00;;;25.35;24.45
57600;BME280;43426;43.594;24.334;2023-10-09T12:11:06;101743.72;;;25.31;23.18
57600;BME280;43426;43.594;24.334;2023-10-09T12:13:37;101734.72;;;25.24;23.61
57600;BME280;43426;43.594;24.334;2023-10-09T12:16:04;101724.13;;;24.92;23.03
57600;BME280;43426;43.594;24.334;2023-10-09T12:18:36;101726.09;;;24.68;23.73
57600;BME280;43426;43.594;24.334;2023-10-09T12:21:02;101721.03;;;24.41;23.66
57600;BME280;43426;43.594;24.334;2023-10-09T12:23:29;101715.63;;;24.46;24.06
57600;BME280;43426;43.594;24.334;2023-10-09T12:26:01;101718.53;;;24.63;23.90
57600;BME280;43426;43.594;24.334;2023-10-09T12:28:27;101715.81;;;25.04;24.39
57600;BME280;43426;43.594;24.334;2023-10-09T12:30:53;101706.16;;;25.47;24.24
57600;BME280;43426;43.594;24.334;2023-10-09T12:33:20;101708.84;;;25.88;22.56
57600;BME280;43426;43.594;24.334;2023-10-09T12:35:53;101679.72;;;25.52;22.82
57600;BME280;43426;43.594;24.334;2023-10-09T12:38:24;101678.66;;;25.70;22.86
57600;BME280;43426;43.594;24.334;2023-10-09T12:41:06;101708.53;;;25.27;22.54
57600;BME280;43426;43.594;24.334;2023-10-09T12:43:50;101686.00;;;24.65;23.59
57600;BME280;43426;43.594;24.334;2023-10-09T12:46:17;101697.13;;;24.59;23.54
57600;BME280;43426;43.594;24.334;2023-10-09T12:48:43;101692.09;;;24.79;23.58
57600;BME280;43426;43.594;24.334;2023-10-09T12:51:12;101696.78;;;24.79;23.44
57600;BME280;43426;43.594;24.334;2023-10-09T12:53:45;101661.47;;;24.81;23.92
57600;BME280;43426;43.594;24.334;2023-10-09T12:56:11;101675.19;;;25.16;22.63
57600;BME280;43426;43.594;24.334;2023-10-09T12:58:37;101647.66;;;24.93;22.79
57600;BME280;43426;43.594;24.334;2023-10-09T13:01:04;101674.88;;;25.01;23.68
57600;BME280;43426;43.594;24.334;2023-10-09T13:03:37;101635.72;;;25.04;23.50
57600;BME280;43426;43.594;24.334;2023-10-09T13:06:05;101653.19;;;24.93;23.10
57600;BME280;43426;43.594;24.334;2023-10-09T13:08:37;101631.63;;;24.78;24.26
57600;BME280;43426;43.594;24.334;2023-10-09T13:11:07;101634.63;;;24.64;24.30
57600;BME280;43426;43.594;24.334;2023-10-09T13:13:37;101632.59;;;24.60;24.44
57600;BME280;43426;43.594;24.334;2023-10-09T13:16:11;101636.75;;;24.86;25.27
57600;BME280;43426;43.594;24.334;2023-10-09T13:18:41;101616.84;;;24.84;25.12
57600;BME280;43426;43.594;24.334;2023-10-09T13:21:21;101629.34;;;24.75;24.17
57600;BME280;43426;43.594;24.334;2023-10-09T13:23:48;101622.66;;;24.47;24.55
57600;BME280;43426;43.594;24.334;2023-10-09T13:26:16;101616.16;;;24.53;24.68
57600;BME280;43426;43.594;24.334;2023-10-09T13:28:48;101605.75;;;24.43;25.21
57600;BME280;43426;43.594;24.334;2023-10-09T13:31:14;101613.06;;;24.61;24.14
57600;BME280;43426;43.594;24.334;2023-10-09T13:33:44;101615.47;;;24.46;24.90
57600;BME280;43426;43.594;24.334;2023-10-09T13:36:10;101613.16;;;24.78;24.92